AFL2817 USSS-URMM
Flight info
| Callsign | AFL2817 |
|---|---|
| Flight time | 3h 13m |
| Altitude | 36000 |
| Route | INLEB DCT IMANA L992 SANIR DCT RIMUN DCT KURUL DCT KODUM N996 GARDU DCT IPLED DCT GOTIK DCT MEMZA A962 OKARU |
| Aircraft | A320/M-SDE2E3FGHIJ1RWY/LB1U1 |
Departure
| Time | 2026-04-28 11:08 |
|---|---|
| Airport | Koltsovo Airport (USSS) |
Arrival
| Time | 2026-04-28 14:21 |
|---|---|
| Airport | Mineralnye Vody Airport (URMM) |
| Time | Latitude | Longitude | Altitude | Speed | Heading |
|---|---|---|---|---|---|
| 2026-04-28 10:51 | 56.74936 | 60.80134 | 774 ft | 0 kts | 360° |
| 2026-04-28 10:58 | 56.74931 | 60.80134 | 774 ft | 2 kts | 360° |
| 2026-04-28 10:58 | 56.74912 | 60.80134 | 774 ft | 3 kts | 360° |
| 2026-04-28 10:58 | 56.74892 | 60.80134 | 774 ft | 3 kts | 360° |
| 2026-04-28 10:59 | 56.74873 | 60.80134 | 774 ft | 3 kts | 17° |
| 2026-04-28 10:59 | 56.74858 | 60.80118 | 774 ft | 3 kts | 67° |
| 2026-04-28 10:59 | 56.74854 | 60.80084 | 774 ft | 2 kts | 89° |
| 2026-04-28 10:59 | 56.74854 | 60.80072 | 774 ft | 0 kts | 90° |
| 2026-04-28 11:01 | 56.74854 | 60.80076 | 774 ft | 3 kts | 90° |
| 2026-04-28 11:02 | 56.74854 | 60.80188 | 774 ft | 13 kts | 90° |
| 2026-04-28 11:02 | 56.74854 | 60.80350 | 774 ft | 15 kts | 90° |
| 2026-04-28 11:02 | 56.74853 | 60.80573 | 774 ft | 18 kts | 90° |
| 2026-04-28 11:02 | 56.74853 | 60.80805 | 775 ft | 18 kts | 90° |
| 2026-04-28 11:03 | 56.74859 | 60.81040 | 775 ft | 19 kts | 80° |
| 2026-04-28 11:03 | 56.74863 | 60.81279 | 775 ft | 19 kts | 90° |
| 2026-04-28 11:03 | 56.74863 | 60.81524 | 775 ft | 20 kts | 90° |
| 2026-04-28 11:03 | 56.74862 | 60.81784 | 775 ft | 21 kts | 90° |
| 2026-04-28 11:04 | 56.74809 | 60.82034 | 775 ft | 22 kts | 117° |
| 2026-04-28 11:04 | 56.74745 | 60.82193 | 775 ft | 13 kts | 158° |
| 2026-04-28 11:04 | 56.74647 | 60.82200 | 775 ft | 15 kts | 180° |
| 2026-04-28 11:04 | 56.74540 | 60.82200 | 774 ft | 16 kts | 179° |
| 2026-04-28 11:05 | 56.74425 | 60.82196 | 775 ft | 17 kts | 185° |
| 2026-04-28 11:05 | 56.74302 | 60.82178 | 775 ft | 18 kts | 184° |
| 2026-04-28 11:05 | 56.74175 | 60.82162 | 775 ft | 14 kts | 184° |
| 2026-04-28 11:05 | 56.74126 | 60.82156 | 775 ft | 7 kts | 184° |
| 2026-04-28 11:06 | 56.74075 | 60.82148 | 775 ft | 7 kts | 194° |
| 2026-04-28 11:06 | 56.74065 | 60.82093 | 775 ft | 2 kts | 276° |
| 2026-04-28 11:06 | 56.74065 | 60.82091 | 775 ft | 0 kts | 276° |
| 2026-04-28 11:07 | 56.74067 | 60.82055 | 775 ft | 15 kts | 275° |
| 2026-04-28 11:07 | 56.74095 | 60.81352 | 775 ft | 92 kts | 274° |
| 2026-04-28 11:07 | 56.74155 | 60.79818 | 775 ft | 149 kts | 274° |
| 2026-04-28 11:08 | 56.74242 | 60.77826 | 1232 ft | 157 kts | 272° |
| 2026-04-28 11:08 | 56.74347 | 60.75839 | 1928 ft | 158 kts | 267° |
| 2026-04-28 11:08 | 56.74211 | 60.73919 | 2575 ft | 150 kts | 237° |
| 2026-04-28 11:08 | 56.73547 | 60.72523 | 3133 ft | 146 kts | 218° |
| 2026-04-28 11:09 | 56.72784 | 60.71288 | 3673 ft | 147 kts | 218° |
| 2026-04-28 11:09 | 56.72011 | 60.70052 | 4138 ft | 154 kts | 218° |
| 2026-04-28 11:09 | 56.71146 | 60.68671 | 4294 ft | 179 kts | 218° |
| 2026-04-28 11:09 | 56.70146 | 60.67075 | 4510 ft | 204 kts | 219° |
| 2026-04-28 11:10 | 56.69024 | 60.65273 | 4831 ft | 228 kts | 219° |
| 2026-04-28 11:10 | 56.67777 | 60.63266 | 5296 ft | 247 kts | 219° |
| 2026-04-28 11:10 | 56.66476 | 60.61164 | 6088 ft | 253 kts | 219° |
| 2026-04-28 11:10 | 56.65152 | 60.59025 | 6917 ft | 256 kts | 220° |
| 2026-04-28 11:11 | 56.63814 | 60.56861 | 7746 ft | 259 kts | 220° |
| 2026-04-28 11:11 | 56.62461 | 60.54675 | 8562 ft | 262 kts | 220° |
| 2026-04-28 11:11 | 56.61089 | 60.52461 | 9386 ft | 265 kts | 220° |
| 2026-04-28 11:11 | 56.59701 | 60.50225 | 10175 ft | 269 kts | 220° |
| 2026-04-28 11:12 | 56.58256 | 60.47902 | 10509 ft | 289 kts | 220° |
| 2026-04-28 11:12 | 56.56694 | 60.45396 | 10767 ft | 309 kts | 220° |
| 2026-04-28 11:12 | 56.55064 | 60.42786 | 11392 ft | 315 kts | 221° |
| 2026-04-28 11:12 | 56.53411 | 60.40141 | 12135 ft | 319 kts | 221° |
| 2026-04-28 11:13 | 56.51744 | 60.37474 | 12914 ft | 321 kts | 221° |
| 2026-04-28 11:13 | 56.50066 | 60.34792 | 13683 ft | 323 kts | 221° |
| 2026-04-28 11:13 | 56.48375 | 60.32095 | 14337 ft | 326 kts | 221° |
| 2026-04-28 11:13 | 56.46667 | 60.29374 | 14977 ft | 328 kts | 221° |
| 2026-04-28 11:14 | 56.44946 | 60.26633 | 15628 ft | 330 kts | 221° |
| 2026-04-28 11:14 | 56.43218 | 60.23879 | 16269 ft | 333 kts | 221° |
| 2026-04-28 11:14 | 56.41431 | 60.21203 | 16896 ft | 335 kts | 215° |
| 2026-04-28 11:14 | 56.39361 | 60.19218 | 17519 ft | 340 kts | 202° |
| 2026-04-28 11:15 | 56.37074 | 60.18051 | 18152 ft | 344 kts | 196° |
| 2026-04-28 11:15 | 56.34736 | 60.17044 | 18700 ft | 347 kts | 196° |
| 2026-04-28 11:15 | 56.32381 | 60.16025 | 19233 ft | 349 kts | 196° |
| 2026-04-28 11:15 | 56.30013 | 60.14997 | 19779 ft | 351 kts | 196° |
| 2026-04-28 11:16 | 56.27660 | 60.13976 | 20326 ft | 353 kts | 197° |
| 2026-04-28 11:16 | 56.25231 | 60.12925 | 20872 ft | 356 kts | 197° |
| 2026-04-28 11:16 | 56.22849 | 60.11896 | 21390 ft | 358 kts | 197° |
| 2026-04-28 11:16 | 56.20419 | 60.10845 | 21918 ft | 361 kts | 197° |
| 2026-04-28 11:17 | 56.17969 | 60.09785 | 22451 ft | 363 kts | 197° |
| 2026-04-28 11:17 | 56.15504 | 60.08718 | 22959 ft | 366 kts | 197° |
| 2026-04-28 11:17 | 56.13021 | 60.07646 | 23444 ft | 369 kts | 197° |
| 2026-04-28 11:17 | 56.10516 | 60.06570 | 23861 ft | 371 kts | 197° |
| 2026-04-28 11:18 | 56.07998 | 60.05493 | 24276 ft | 373 kts | 197° |
| 2026-04-28 11:18 | 56.05467 | 60.04413 | 24663 ft | 375 kts | 197° |
| 2026-04-28 11:18 | 56.02921 | 60.03328 | 25042 ft | 377 kts | 197° |
| 2026-04-28 11:18 | 56.00363 | 60.02236 | 25419 ft | 379 kts | 197° |
| 2026-04-28 11:19 | 55.97791 | 60.01135 | 25801 ft | 381 kts | 197° |
| 2026-04-28 11:19 | 55.95211 | 60.00034 | 26166 ft | 382 kts | 197° |
| 2026-04-28 11:19 | 55.92650 | 59.98941 | 26525 ft | 384 kts | 197° |
| 2026-04-28 11:19 | 55.90043 | 59.97828 | 26884 ft | 386 kts | 197° |
| 2026-04-28 11:20 | 55.87427 | 59.96714 | 27255 ft | 388 kts | 197° |
| 2026-04-28 11:20 | 55.84796 | 59.95599 | 27609 ft | 389 kts | 197° |
| 2026-04-28 11:20 | 55.82156 | 59.94479 | 27942 ft | 391 kts | 197° |
| 2026-04-28 11:20 | 55.79501 | 59.93354 | 28277 ft | 393 kts | 197° |
| 2026-04-28 11:21 | 55.76839 | 59.92234 | 28628 ft | 394 kts | 197° |
| 2026-04-28 11:21 | 55.74166 | 59.91114 | 28943 ft | 395 kts | 197° |
| 2026-04-28 11:21 | 55.71482 | 59.89990 | 29252 ft | 397 kts | 197° |
| 2026-04-28 11:21 | 55.68786 | 59.88858 | 29543 ft | 399 kts | 197° |
| 2026-04-28 11:22 | 55.66082 | 59.87724 | 29852 ft | 400 kts | 197° |
| 2026-04-28 11:22 | 55.63371 | 59.86590 | 30129 ft | 401 kts | 197° |
| 2026-04-28 11:22 | 55.60651 | 59.85450 | 30363 ft | 403 kts | 197° |
| 2026-04-28 11:22 | 55.57918 | 59.84303 | 30594 ft | 404 kts | 197° |
| 2026-04-28 11:23 | 55.55180 | 59.83156 | 30827 ft | 405 kts | 198° |
| 2026-04-28 11:23 | 55.52430 | 59.82011 | 31068 ft | 406 kts | 197° |
| 2026-04-28 11:23 | 55.49685 | 59.80876 | 31360 ft | 405 kts | 197° |
| 2026-04-28 11:23 | 55.46940 | 59.79742 | 31653 ft | 405 kts | 197° |
| 2026-04-28 11:24 | 55.44203 | 59.78611 | 31954 ft | 404 kts | 198° |
| 2026-04-28 11:24 | 55.41473 | 59.77478 | 32252 ft | 403 kts | 198° |
| 2026-04-28 11:24 | 55.38751 | 59.76349 | 32536 ft | 402 kts | 198° |
| 2026-04-28 11:24 | 55.36018 | 59.75256 | 32825 ft | 402 kts | 197° |
| 2026-04-28 11:25 | 55.33286 | 59.74209 | 33130 ft | 401 kts | 197° |
| 2026-04-28 11:25 | 55.30556 | 59.73186 | 33424 ft | 401 kts | 197° |
| 2026-04-28 11:25 | 55.27831 | 59.72168 | 33723 ft | 400 kts | 197° |
| 2026-04-28 11:25 | 55.25141 | 59.71161 | 33934 ft | 400 kts | 197° |
| 2026-04-28 11:26 | 55.22439 | 59.70144 | 33970 ft | 394 kts | 197° |
| 2026-04-28 11:26 | 55.17197 | 59.67726 | 33973 ft | 387 kts | 201° |
| 2026-04-28 11:27 | 55.12078 | 59.64854 | 33974 ft | 386 kts | 202° |
| 2026-04-28 11:27 | 55.06975 | 59.61981 | 33979 ft | 385 kts | 201° |
| 2026-04-28 11:28 | 55.01851 | 59.59219 | 33974 ft | 385 kts | 201° |
| 2026-04-28 11:28 | 54.96731 | 59.56513 | 33977 ft | 384 kts | 201° |
| 2026-04-28 11:29 | 54.91614 | 59.53817 | 33978 ft | 384 kts | 201° |
| 2026-04-28 11:29 | 54.86463 | 59.51076 | 33979 ft | 390 kts | 201° |
| 2026-04-28 11:30 | 54.81262 | 59.48299 | 33986 ft | 391 kts | 201° |
| 2026-04-28 11:30 | 54.73451 | 59.44139 | 33990 ft | 391 kts | 201° |
| 2026-04-28 11:31 | 54.69131 | 59.41842 | 33993 ft | 391 kts | 201° |
| 2026-04-28 11:31 | 54.63062 | 59.38619 | 33994 ft | 390 kts | 201° |
| 2026-04-28 11:32 | 54.58746 | 59.36329 | 33989 ft | 390 kts | 201° |
| 2026-04-28 11:32 | 54.53561 | 59.33582 | 33990 ft | 390 kts | 201° |
| 2026-04-28 11:33 | 54.48378 | 59.30839 | 33997 ft | 389 kts | 201° |
| 2026-04-28 11:33 | 54.43236 | 59.28126 | 33993 ft | 389 kts | 201° |
| 2026-04-28 11:34 | 54.38060 | 59.25402 | 34004 ft | 389 kts | 201° |
| 2026-04-28 11:34 | 54.32885 | 59.22687 | 34010 ft | 389 kts | 200° |
| 2026-04-28 11:35 | 54.27714 | 59.19982 | 34019 ft | 388 kts | 200° |
| 2026-04-28 11:35 | 54.22545 | 59.17287 | 34019 ft | 388 kts | 200° |
| 2026-04-28 11:36 | 54.17378 | 59.14598 | 34026 ft | 388 kts | 200° |
| 2026-04-28 11:36 | 54.12222 | 59.11923 | 34017 ft | 387 kts | 200° |
| 2026-04-28 11:37 | 54.07069 | 59.09254 | 34029 ft | 387 kts | 200° |
| 2026-04-28 11:37 | 54.01924 | 59.06598 | 34019 ft | 386 kts | 200° |
| 2026-04-28 11:38 | 53.96786 | 59.03953 | 34026 ft | 386 kts | 200° |
| 2026-04-28 11:38 | 53.91651 | 59.01316 | 34021 ft | 385 kts | 200° |
| 2026-04-28 11:39 | 53.86521 | 58.98687 | 34021 ft | 385 kts | 200° |
| 2026-04-28 11:39 | 53.81391 | 58.96064 | 34023 ft | 385 kts | 200° |
| 2026-04-28 11:40 | 53.76260 | 58.93446 | 34023 ft | 385 kts | 200° |
| 2026-04-28 11:40 | 53.71133 | 58.90836 | 34030 ft | 385 kts | 200° |
| 2026-04-28 11:41 | 53.66009 | 58.88232 | 34038 ft | 385 kts | 200° |
| 2026-04-28 11:41 | 53.60883 | 58.85633 | 34043 ft | 384 kts | 200° |
| 2026-04-28 11:42 | 53.55802 | 58.83064 | 34053 ft | 384 kts | 200° |
| 2026-04-28 11:42 | 53.50685 | 58.80484 | 34053 ft | 384 kts | 200° |
| 2026-04-28 11:43 | 53.45572 | 58.77914 | 34061 ft | 383 kts | 200° |
| 2026-04-28 11:43 | 53.40465 | 58.75354 | 34056 ft | 383 kts | 200° |
| 2026-04-28 11:44 | 53.35382 | 58.72763 | 34079 ft | 380 kts | 201° |
| 2026-04-28 11:44 | 53.30361 | 58.70082 | 34082 ft | 377 kts | 201° |
| 2026-04-28 11:45 | 53.25412 | 58.67426 | 34080 ft | 375 kts | 201° |
| 2026-04-28 11:45 | 53.20451 | 58.64798 | 34073 ft | 373 kts | 201° |
| 2026-04-28 11:46 | 53.15504 | 58.62193 | 34072 ft | 372 kts | 201° |
| 2026-04-28 11:46 | 53.10563 | 58.59597 | 34075 ft | 372 kts | 201° |
| 2026-04-28 11:47 | 53.05627 | 58.57009 | 34072 ft | 372 kts | 201° |
| 2026-04-28 11:47 | 53.00698 | 58.54423 | 34068 ft | 371 kts | 201° |
| 2026-04-28 11:48 | 52.95769 | 58.51859 | 34072 ft | 371 kts | 200° |
| 2026-04-28 11:48 | 52.90843 | 58.49305 | 34067 ft | 371 kts | 200° |
| 2026-04-28 11:49 | 52.85920 | 58.46747 | 34072 ft | 371 kts | 200° |
| 2026-04-28 11:49 | 52.81001 | 58.44188 | 34070 ft | 370 kts | 200° |
| 2026-04-28 11:50 | 52.76090 | 58.41644 | 34070 ft | 370 kts | 200° |
| 2026-04-28 11:50 | 52.71213 | 58.39128 | 34065 ft | 370 kts | 200° |
| 2026-04-28 11:51 | 52.66295 | 58.36603 | 34085 ft | 370 kts | 200° |
| 2026-04-28 11:51 | 52.61402 | 58.34096 | 34107 ft | 367 kts | 200° |
| 2026-04-28 11:52 | 52.56536 | 58.31608 | 34110 ft | 365 kts | 200° |
| 2026-04-28 11:52 | 52.51690 | 58.29153 | 34101 ft | 364 kts | 200° |
| 2026-04-28 11:53 | 52.46853 | 58.26719 | 34099 ft | 363 kts | 200° |
| 2026-04-28 11:53 | 52.42024 | 58.24302 | 34093 ft | 363 kts | 200° |
| 2026-04-28 11:54 | 52.37196 | 58.21883 | 34086 ft | 363 kts | 200° |
| 2026-04-28 11:54 | 52.32367 | 58.19471 | 34072 ft | 363 kts | 200° |
| 2026-04-28 11:55 | 52.27538 | 58.17058 | 34067 ft | 363 kts | 200° |
| 2026-04-28 11:55 | 52.22731 | 58.14670 | 34077 ft | 364 kts | 200° |
| 2026-04-28 11:56 | 52.17856 | 58.12249 | 34076 ft | 364 kts | 200° |
| 2026-04-28 11:56 | 52.13013 | 58.09840 | 34082 ft | 364 kts | 200° |
| 2026-04-28 11:57 | 52.08197 | 58.07453 | 34079 ft | 364 kts | 200° |
| 2026-04-28 11:57 | 52.03345 | 58.05063 | 34081 ft | 365 kts | 200° |
| 2026-04-28 11:58 | 51.98482 | 58.02682 | 34084 ft | 365 kts | 200° |
| 2026-04-28 11:58 | 51.93619 | 58.00289 | 34086 ft | 366 kts | 200° |
| 2026-04-28 11:59 | 51.88746 | 57.97903 | 34087 ft | 366 kts | 200° |
| 2026-04-28 11:59 | 51.83866 | 57.95525 | 34088 ft | 366 kts | 200° |
| 2026-04-28 12:00 | 51.78990 | 57.93143 | 34088 ft | 366 kts | 200° |
| 2026-04-28 12:00 | 51.74109 | 57.90761 | 34091 ft | 367 kts | 200° |
| 2026-04-28 12:01 | 51.69217 | 57.88388 | 34095 ft | 367 kts | 200° |
| 2026-04-28 12:01 | 51.64321 | 57.86018 | 34100 ft | 367 kts | 200° |
| 2026-04-28 12:02 | 51.59425 | 57.83655 | 34103 ft | 368 kts | 200° |
| 2026-04-28 12:02 | 51.54518 | 57.81285 | 34105 ft | 368 kts | 200° |
| 2026-04-28 12:03 | 51.49607 | 57.78917 | 34105 ft | 368 kts | 200° |
| 2026-04-28 12:03 | 51.44695 | 57.76552 | 34105 ft | 369 kts | 200° |
| 2026-04-28 12:04 | 51.39778 | 57.74201 | 34102 ft | 369 kts | 199° |
| 2026-04-28 12:04 | 51.34858 | 57.71856 | 34108 ft | 369 kts | 199° |
| 2026-04-28 12:05 | 51.29930 | 57.69506 | 34113 ft | 370 kts | 199° |
| 2026-04-28 12:05 | 51.24988 | 57.67160 | 34109 ft | 371 kts | 199° |
| 2026-04-28 12:06 | 51.20081 | 57.64828 | 34115 ft | 371 kts | 199° |
| 2026-04-28 12:06 | 51.15132 | 57.62480 | 34113 ft | 371 kts | 199° |
| 2026-04-28 12:07 | 51.10182 | 57.60141 | 34114 ft | 371 kts | 199° |
| 2026-04-28 12:07 | 51.05228 | 57.57810 | 34118 ft | 372 kts | 199° |
| 2026-04-28 12:08 | 51.00265 | 57.55487 | 34118 ft | 372 kts | 199° |
| 2026-04-28 12:08 | 50.95304 | 57.53157 | 34119 ft | 372 kts | 199° |
| 2026-04-28 12:09 | 50.90332 | 57.50828 | 34122 ft | 373 kts | 199° |
| 2026-04-28 12:09 | 50.85580 | 57.47687 | 34121 ft | 369 kts | 212° |
| 2026-04-28 12:10 | 50.81187 | 57.43460 | 34123 ft | 370 kts | 212° |
| 2026-04-28 12:10 | 50.76807 | 57.39279 | 34126 ft | 370 kts | 212° |
| 2026-04-28 12:11 | 50.72388 | 57.35086 | 34126 ft | 371 kts | 212° |
| 2026-04-28 12:11 | 50.67966 | 57.30896 | 34131 ft | 371 kts | 212° |
| 2026-04-28 12:12 | 50.63540 | 57.26698 | 34128 ft | 371 kts | 212° |
| 2026-04-28 12:12 | 50.59108 | 57.22507 | 34131 ft | 372 kts | 212° |
| 2026-04-28 12:13 | 50.54672 | 57.18324 | 34133 ft | 372 kts | 212° |
| 2026-04-28 12:13 | 50.50227 | 57.14151 | 34135 ft | 372 kts | 212° |
| 2026-04-28 12:14 | 50.45782 | 57.09981 | 34138 ft | 372 kts | 212° |
| 2026-04-28 12:14 | 50.41324 | 57.05836 | 34142 ft | 372 kts | 211° |
| 2026-04-28 12:15 | 50.36844 | 57.01751 | 34141 ft | 373 kts | 211° |
| 2026-04-28 12:15 | 50.32378 | 56.97694 | 34195 ft | 376 kts | 211° |
| 2026-04-28 12:16 | 50.30076 | 56.95600 | 34344 ft | 379 kts | 211° |
| 2026-04-28 12:16 | 50.27788 | 56.93518 | 34550 ft | 381 kts | 211° |
| 2026-04-28 12:16 | 50.25498 | 56.91437 | 34766 ft | 381 kts | 211° |
| 2026-04-28 12:16 | 50.23200 | 56.89353 | 34984 ft | 382 kts | 211° |
| 2026-04-28 12:17 | 50.20901 | 56.87267 | 35194 ft | 383 kts | 211° |
| 2026-04-28 12:17 | 50.18631 | 56.85209 | 35393 ft | 383 kts | 211° |
| 2026-04-28 12:17 | 50.16321 | 56.83120 | 35595 ft | 384 kts | 211° |
| 2026-04-28 12:17 | 50.14007 | 56.81033 | 35796 ft | 384 kts | 211° |
| 2026-04-28 12:18 | 50.11692 | 56.78949 | 35988 ft | 385 kts | 211° |
| 2026-04-28 12:18 | 50.09374 | 56.76861 | 36127 ft | 386 kts | 211° |
| 2026-04-28 12:18 | 50.04722 | 56.72675 | 36148 ft | 386 kts | 211° |
| 2026-04-28 12:19 | 50.00070 | 56.68497 | 36149 ft | 386 kts | 211° |
| 2026-04-28 12:19 | 49.95411 | 56.64327 | 36148 ft | 386 kts | 211° |
| 2026-04-28 12:20 | 49.90747 | 56.60162 | 36150 ft | 387 kts | 211° |
| 2026-04-28 12:20 | 49.86086 | 56.56002 | 36142 ft | 387 kts | 211° |
| 2026-04-28 12:21 | 49.81417 | 56.51844 | 36139 ft | 387 kts | 211° |
| 2026-04-28 12:21 | 49.76785 | 56.47721 | 36134 ft | 387 kts | 211° |
| 2026-04-28 12:22 | 49.72110 | 56.43588 | 36133 ft | 387 kts | 211° |
| 2026-04-28 12:22 | 49.67417 | 56.39444 | 36147 ft | 390 kts | 211° |
| 2026-04-28 12:23 | 49.62702 | 56.35288 | 36147 ft | 390 kts | 211° |
| 2026-04-28 12:23 | 49.57991 | 56.31157 | 36149 ft | 389 kts | 211° |
| 2026-04-28 12:24 | 49.53284 | 56.27031 | 36146 ft | 389 kts | 211° |
| 2026-04-28 12:24 | 49.48583 | 56.22900 | 36143 ft | 389 kts | 211° |
| 2026-04-28 12:25 | 49.43877 | 56.18783 | 36139 ft | 389 kts | 211° |
| 2026-04-28 12:25 | 49.39164 | 56.14683 | 36137 ft | 389 kts | 211° |
| 2026-04-28 12:26 | 49.34448 | 56.10588 | 36133 ft | 390 kts | 211° |
| 2026-04-28 12:26 | 49.30530 | 56.07183 | 36134 ft | 390 kts | 211° |
| 2026-04-28 12:27 | 49.25047 | 56.02420 | 36132 ft | 390 kts | 211° |
| 2026-04-28 12:27 | 49.20322 | 55.98330 | 36131 ft | 390 kts | 211° |
| 2026-04-28 12:28 | 49.16390 | 55.94943 | 36132 ft | 391 kts | 211° |
| 2026-04-28 12:28 | 49.11648 | 55.90881 | 36133 ft | 391 kts | 211° |
| 2026-04-28 12:29 | 49.04530 | 55.84780 | 36131 ft | 391 kts | 211° |
| 2026-04-28 12:30 | 48.99783 | 55.80709 | 36133 ft | 392 kts | 211° |
| 2026-04-28 12:30 | 48.95026 | 55.76647 | 36133 ft | 392 kts | 211° |
| 2026-04-28 12:31 | 48.90270 | 55.72588 | 36129 ft | 392 kts | 211° |
| 2026-04-28 12:31 | 48.85496 | 55.68539 | 36132 ft | 393 kts | 211° |
| 2026-04-28 12:32 | 48.80862 | 55.64153 | 36134 ft | 393 kts | 215° |
| 2026-04-28 12:32 | 48.76375 | 55.59421 | 36135 ft | 393 kts | 216° |
| 2026-04-28 12:33 | 48.71882 | 55.54693 | 36127 ft | 393 kts | 215° |
| 2026-04-28 12:33 | 48.67346 | 55.50052 | 36134 ft | 394 kts | 215° |
| 2026-04-28 12:34 | 48.62823 | 55.45470 | 36126 ft | 394 kts | 215° |
| 2026-04-28 12:34 | 48.58262 | 55.40864 | 36136 ft | 394 kts | 215° |
| 2026-04-28 12:35 | 48.53700 | 55.36260 | 36136 ft | 395 kts | 215° |
| 2026-04-28 12:35 | 48.49129 | 55.31654 | 36135 ft | 395 kts | 215° |
| 2026-04-28 12:36 | 48.44554 | 55.27051 | 36136 ft | 395 kts | 214° |
| 2026-04-28 12:36 | 48.39977 | 55.22454 | 36138 ft | 396 kts | 215° |
| 2026-04-28 12:37 | 48.35402 | 55.17854 | 36142 ft | 396 kts | 215° |
| 2026-04-28 12:37 | 48.30821 | 55.13262 | 36140 ft | 396 kts | 215° |
| 2026-04-28 12:38 | 48.26231 | 55.08679 | 36141 ft | 396 kts | 214° |
| 2026-04-28 12:38 | 48.21631 | 55.04102 | 36143 ft | 397 kts | 214° |
| 2026-04-28 12:39 | 48.17027 | 54.99531 | 36140 ft | 397 kts | 214° |
| 2026-04-28 12:39 | 48.12450 | 54.95001 | 36139 ft | 397 kts | 214° |
| 2026-04-28 12:40 | 48.07808 | 54.90412 | 36137 ft | 397 kts | 215° |
| 2026-04-28 12:40 | 48.03233 | 54.85886 | 36134 ft | 397 kts | 214° |
| 2026-04-28 12:41 | 47.98623 | 54.81333 | 36135 ft | 398 kts | 214° |
| 2026-04-28 12:41 | 47.94001 | 54.76795 | 36136 ft | 398 kts | 214° |
| 2026-04-28 12:42 | 47.89367 | 54.72254 | 36140 ft | 399 kts | 214° |
| 2026-04-28 12:42 | 47.84737 | 54.67712 | 36140 ft | 399 kts | 214° |
| 2026-04-28 12:43 | 47.80099 | 54.63174 | 36141 ft | 399 kts | 214° |
| 2026-04-28 12:43 | 47.75457 | 54.58646 | 36141 ft | 399 kts | 214° |
| 2026-04-28 12:44 | 47.70811 | 54.54132 | 36139 ft | 399 kts | 214° |
| 2026-04-28 12:44 | 47.66164 | 54.49624 | 36137 ft | 399 kts | 214° |
| 2026-04-28 12:45 | 47.61521 | 54.45115 | 36139 ft | 399 kts | 214° |
| 2026-04-28 12:45 | 47.56861 | 54.40619 | 36140 ft | 400 kts | 214° |
| 2026-04-28 12:46 | 47.52203 | 54.36133 | 36138 ft | 400 kts | 214° |
| 2026-04-28 12:46 | 47.47575 | 54.31682 | 36134 ft | 399 kts | 214° |
| 2026-04-28 12:47 | 47.42913 | 54.27206 | 36136 ft | 400 kts | 214° |
| 2026-04-28 12:47 | 47.38213 | 54.22707 | 36134 ft | 400 kts | 214° |
| 2026-04-28 12:48 | 47.33541 | 54.18232 | 36136 ft | 401 kts | 214° |
| 2026-04-28 12:48 | 47.28892 | 54.13800 | 36135 ft | 401 kts | 214° |
| 2026-04-28 12:49 | 47.24203 | 54.09342 | 36139 ft | 401 kts | 214° |
| 2026-04-28 12:49 | 47.19513 | 54.04881 | 36142 ft | 402 kts | 214° |
| 2026-04-28 12:50 | 47.14807 | 54.00434 | 36143 ft | 402 kts | 214° |
| 2026-04-28 12:50 | 47.10099 | 53.95987 | 36146 ft | 402 kts | 214° |
| 2026-04-28 12:51 | 47.05656 | 53.91776 | 36146 ft | 402 kts | 214° |
| 2026-04-28 12:51 | 47.00946 | 53.87340 | 36145 ft | 402 kts | 214° |
| 2026-04-28 12:52 | 46.96230 | 53.82917 | 36143 ft | 403 kts | 214° |
| 2026-04-28 12:52 | 46.91510 | 53.78497 | 36151 ft | 403 kts | 214° |
| 2026-04-28 12:53 | 46.86816 | 53.74100 | 36150 ft | 403 kts | 214° |
| 2026-04-28 12:53 | 46.82088 | 53.69682 | 36148 ft | 403 kts | 214° |
| 2026-04-28 12:54 | 46.77361 | 53.65275 | 36148 ft | 403 kts | 214° |
| 2026-04-28 12:54 | 46.74486 | 53.62596 | 36147 ft | 403 kts | 214° |
| 2026-04-28 12:55 | 46.70069 | 53.58493 | 36133 ft | 395 kts | 214° |
| 2026-04-28 12:55 | 46.65467 | 53.54228 | 36160 ft | 395 kts | 214° |
| 2026-04-28 12:56 | 46.60757 | 53.49864 | 36167 ft | 407 kts | 214° |
| 2026-04-28 12:56 | 46.55923 | 53.45398 | 36168 ft | 417 kts | 214° |
| 2026-04-28 12:57 | 46.50977 | 53.40843 | 36167 ft | 424 kts | 214° |
| 2026-04-28 12:57 | 46.45955 | 53.36234 | 36170 ft | 430 kts | 214° |
| 2026-04-28 12:58 | 46.40890 | 53.31591 | 36169 ft | 431 kts | 214° |
| 2026-04-28 12:58 | 46.35920 | 53.27033 | 36174 ft | 431 kts | 214° |
| 2026-04-28 12:59 | 46.30747 | 53.22309 | 36174 ft | 432 kts | 214° |
| 2026-04-28 12:59 | 46.25664 | 53.17686 | 36177 ft | 432 kts | 214° |
| 2026-04-28 13:00 | 46.20575 | 53.13068 | 36176 ft | 432 kts | 214° |
| 2026-04-28 13:00 | 46.15488 | 53.08445 | 36178 ft | 432 kts | 214° |
| 2026-04-28 13:01 | 46.10394 | 53.03833 | 36187 ft | 432 kts | 214° |
| 2026-04-28 13:01 | 46.05294 | 52.99234 | 36181 ft | 433 kts | 214° |
| 2026-04-28 13:02 | 46.00192 | 52.94636 | 36191 ft | 433 kts | 214° |
| 2026-04-28 13:02 | 45.95082 | 52.90040 | 36192 ft | 434 kts | 214° |
| 2026-04-28 13:03 | 45.89960 | 52.85446 | 36192 ft | 434 kts | 214° |
| 2026-04-28 13:03 | 45.84836 | 52.80861 | 36197 ft | 434 kts | 214° |
| 2026-04-28 13:04 | 45.79700 | 52.76273 | 36198 ft | 435 kts | 214° |
| 2026-04-28 13:04 | 45.74568 | 52.71691 | 36206 ft | 435 kts | 214° |
| 2026-04-28 13:05 | 45.69430 | 52.67124 | 36201 ft | 435 kts | 214° |
| 2026-04-28 13:05 | 45.64326 | 52.62589 | 36201 ft | 435 kts | 213° |
| 2026-04-28 13:06 | 45.59181 | 52.58036 | 36202 ft | 435 kts | 213° |
| 2026-04-28 13:06 | 45.54514 | 52.52650 | 36205 ft | 432 kts | 231° |
| 2026-04-28 13:06 | 45.52814 | 52.49134 | 36202 ft | 431 kts | 242° |
| 2026-04-28 13:07 | 45.51600 | 52.45235 | 36204 ft | 431 kts | 248° |
| 2026-04-28 13:07 | 45.49413 | 52.37270 | 36205 ft | 431 kts | 248° |
| 2026-04-28 13:08 | 45.47198 | 52.29327 | 36202 ft | 431 kts | 248° |
| 2026-04-28 13:08 | 45.44969 | 52.21395 | 36207 ft | 431 kts | 247° |
| 2026-04-28 13:09 | 45.42742 | 52.13465 | 36207 ft | 431 kts | 247° |
| 2026-04-28 13:09 | 45.40501 | 52.05551 | 36213 ft | 431 kts | 247° |
| 2026-04-28 13:10 | 45.38259 | 51.97639 | 36210 ft | 431 kts | 247° |
| 2026-04-28 13:10 | 45.36023 | 51.89733 | 36214 ft | 431 kts | 247° |
| 2026-04-28 13:11 | 45.33779 | 51.81840 | 36216 ft | 431 kts | 247° |
| 2026-04-28 13:11 | 45.31525 | 51.73956 | 36216 ft | 430 kts | 247° |
| 2026-04-28 13:12 | 45.29267 | 51.66090 | 36218 ft | 430 kts | 247° |
| 2026-04-28 13:12 | 45.27029 | 51.58279 | 36223 ft | 430 kts | 247° |
| 2026-04-28 13:13 | 45.24768 | 51.50435 | 36221 ft | 429 kts | 247° |
| 2026-04-28 13:13 | 45.22502 | 51.42604 | 36222 ft | 429 kts | 247° |
| 2026-04-28 13:14 | 45.20234 | 51.34780 | 36224 ft | 429 kts | 247° |
| 2026-04-28 13:14 | 45.17962 | 51.26974 | 36232 ft | 428 kts | 246° |
| 2026-04-28 13:15 | 45.15684 | 51.19177 | 36235 ft | 428 kts | 246° |
| 2026-04-28 13:15 | 45.13402 | 51.11397 | 36229 ft | 428 kts | 246° |
| 2026-04-28 13:16 | 45.11114 | 51.03624 | 36237 ft | 427 kts | 246° |
| 2026-04-28 13:16 | 45.08822 | 50.95866 | 36237 ft | 427 kts | 246° |
| 2026-04-28 13:17 | 45.06528 | 50.88110 | 36227 ft | 427 kts | 246° |
| 2026-04-28 13:17 | 45.04232 | 50.80362 | 36229 ft | 427 kts | 246° |
| 2026-04-28 13:18 | 45.01947 | 50.72672 | 36226 ft | 427 kts | 246° |
| 2026-04-28 13:18 | 44.99642 | 50.64936 | 36226 ft | 427 kts | 246° |
| 2026-04-28 13:19 | 44.97334 | 50.57208 | 36227 ft | 427 kts | 246° |
| 2026-04-28 13:19 | 44.95392 | 50.50746 | 36228 ft | 427 kts | 246° |
| 2026-04-28 13:20 | 44.93069 | 50.43033 | 36231 ft | 427 kts | 246° |
| 2026-04-28 13:20 | 44.90747 | 50.35327 | 36232 ft | 427 kts | 246° |
| 2026-04-28 13:21 | 44.88419 | 50.27629 | 36230 ft | 427 kts | 246° |
| 2026-04-28 13:21 | 44.86077 | 50.19940 | 36237 ft | 427 kts | 246° |
| 2026-04-28 13:22 | 44.83738 | 50.12258 | 36236 ft | 426 kts | 246° |
| 2026-04-28 13:22 | 44.81414 | 50.04640 | 36228 ft | 426 kts | 246° |
| 2026-04-28 13:23 | 44.79046 | 49.96922 | 36240 ft | 426 kts | 246° |
| 2026-04-28 13:23 | 44.76706 | 49.89317 | 36235 ft | 426 kts | 245° |
| 2026-04-28 13:24 | 44.74346 | 49.81666 | 36231 ft | 426 kts | 245° |
| 2026-04-28 13:24 | 44.71963 | 49.73964 | 36245 ft | 426 kts | 245° |
| 2026-04-28 13:25 | 44.69594 | 49.66320 | 36238 ft | 426 kts | 245° |
| 2026-04-28 13:25 | 44.67238 | 49.58742 | 36248 ft | 426 kts | 245° |
| 2026-04-28 13:26 | 44.64860 | 49.51107 | 36251 ft | 426 kts | 245° |
| 2026-04-28 13:26 | 44.62478 | 49.43491 | 36249 ft | 426 kts | 245° |
| 2026-04-28 13:27 | 44.60084 | 49.35881 | 36245 ft | 426 kts | 245° |
| 2026-04-28 13:27 | 44.57693 | 49.28276 | 36251 ft | 426 kts | 245° |
| 2026-04-28 13:28 | 44.55297 | 49.20673 | 36253 ft | 426 kts | 245° |
| 2026-04-28 13:28 | 44.52894 | 49.13076 | 36255 ft | 426 kts | 245° |
| 2026-04-28 13:29 | 44.50483 | 49.05484 | 36253 ft | 426 kts | 245° |
| 2026-04-28 13:29 | 44.48065 | 48.97900 | 36252 ft | 427 kts | 245° |
| 2026-04-28 13:30 | 44.45640 | 48.90313 | 36257 ft | 427 kts | 245° |
| 2026-04-28 13:30 | 44.43213 | 48.82734 | 36249 ft | 427 kts | 245° |
| 2026-04-28 13:31 | 44.39565 | 48.71385 | 36252 ft | 426 kts | 245° |
| 2026-04-28 13:31 | 44.37128 | 48.63828 | 36256 ft | 426 kts | 244° |
| 2026-04-28 13:32 | 44.34682 | 48.56274 | 36259 ft | 427 kts | 244° |
| 2026-04-28 13:32 | 44.32237 | 48.48735 | 36263 ft | 427 kts | 244° |
| 2026-04-28 13:33 | 44.29786 | 48.41192 | 36264 ft | 426 kts | 244° |
| 2026-04-28 13:33 | 44.27326 | 48.33656 | 36267 ft | 426 kts | 244° |
| 2026-04-28 13:34 | 44.24867 | 48.26143 | 36264 ft | 426 kts | 244° |
| 2026-04-28 13:34 | 44.22403 | 48.18643 | 36256 ft | 425 kts | 244° |
| 2026-04-28 13:35 | 44.19930 | 48.11150 | 36262 ft | 425 kts | 244° |
| 2026-04-28 13:35 | 44.17458 | 48.03661 | 36259 ft | 426 kts | 244° |
| 2026-04-28 13:36 | 44.14977 | 47.96173 | 36260 ft | 426 kts | 244° |
| 2026-04-28 13:36 | 44.12499 | 47.88693 | 36256 ft | 426 kts | 244° |
| 2026-04-28 13:37 | 44.10012 | 47.81216 | 36262 ft | 426 kts | 244° |
| 2026-04-28 13:37 | 44.07520 | 47.73754 | 36253 ft | 426 kts | 244° |
| 2026-04-28 13:38 | 44.05021 | 47.66288 | 36259 ft | 426 kts | 244° |
| 2026-04-28 13:38 | 44.02522 | 47.58830 | 36250 ft | 425 kts | 244° |
| 2026-04-28 13:39 | 44.00016 | 47.51385 | 36247 ft | 425 kts | 244° |
| 2026-04-28 13:39 | 43.97508 | 47.43945 | 36244 ft | 425 kts | 244° |
| 2026-04-28 13:40 | 43.94992 | 47.36510 | 36242 ft | 425 kts | 243° |
| 2026-04-28 13:40 | 43.92470 | 47.29088 | 36243 ft | 425 kts | 243° |
| 2026-04-28 13:41 | 43.89937 | 47.21672 | 36247 ft | 425 kts | 243° |
| 2026-04-28 13:41 | 43.87414 | 47.14261 | 36238 ft | 425 kts | 243° |
| 2026-04-28 13:42 | 43.84884 | 47.06850 | 36242 ft | 425 kts | 243° |
| 2026-04-28 13:42 | 43.82345 | 46.99453 | 36235 ft | 425 kts | 243° |
| 2026-04-28 13:43 | 43.79793 | 46.92065 | 36233 ft | 425 kts | 243° |
| 2026-04-28 13:43 | 43.77243 | 46.84680 | 36246 ft | 425 kts | 243° |
| 2026-04-28 13:44 | 43.74698 | 46.77302 | 36228 ft | 425 kts | 243° |
| 2026-04-28 13:44 | 43.72147 | 46.69923 | 36234 ft | 425 kts | 243° |
| 2026-04-28 13:45 | 43.69582 | 46.62561 | 36226 ft | 425 kts | 243° |
| 2026-04-28 13:45 | 43.67013 | 46.55206 | 36226 ft | 425 kts | 243° |
| 2026-04-28 13:46 | 43.64445 | 46.47856 | 36232 ft | 425 kts | 243° |
| 2026-04-28 13:46 | 43.61869 | 46.40517 | 36230 ft | 425 kts | 243° |
| 2026-04-28 13:47 | 43.59285 | 46.33185 | 36227 ft | 425 kts | 243° |
| 2026-04-28 13:47 | 43.56700 | 46.25857 | 36225 ft | 425 kts | 243° |
| 2026-04-28 13:48 | 43.54114 | 46.18546 | 36225 ft | 424 kts | 243° |
| 2026-04-28 13:48 | 43.51520 | 46.11236 | 36224 ft | 424 kts | 243° |
| 2026-04-28 13:49 | 43.49554 | 46.03595 | 36213 ft | 428 kts | 259° |
| 2026-04-28 13:49 | 43.49389 | 45.99492 | 36212 ft | 431 kts | 270° |
| 2026-04-28 13:49 | 43.49703 | 45.95370 | 36213 ft | 433 kts | 273° |
| 2026-04-28 13:50 | 43.50401 | 45.87126 | 36211 ft | 433 kts | 273° |
| 2026-04-28 13:50 | 43.51076 | 45.78870 | 36212 ft | 434 kts | 273° |
| 2026-04-28 13:51 | 43.51743 | 45.70620 | 36212 ft | 434 kts | 272° |
| 2026-04-28 13:51 | 43.52406 | 45.62354 | 36215 ft | 434 kts | 272° |
| 2026-04-28 13:52 | 43.53063 | 45.54096 | 36217 ft | 434 kts | 272° |
| 2026-04-28 13:52 | 43.53720 | 45.45832 | 36217 ft | 434 kts | 272° |
| 2026-04-28 13:53 | 43.54376 | 45.37568 | 36217 ft | 434 kts | 272° |
| 2026-04-28 13:53 | 43.55020 | 45.29297 | 36218 ft | 434 kts | 272° |
| 2026-04-28 13:54 | 43.55653 | 45.21077 | 36187 ft | 422 kts | 272° |
| 2026-04-28 13:54 | 43.55961 | 45.17121 | 36196 ft | 410 kts | 272° |
| 2026-04-28 13:54 | 43.56261 | 45.13231 | 36196 ft | 407 kts | 272° |
| 2026-04-28 13:55 | 43.56852 | 45.05504 | 36194 ft | 404 kts | 272° |
| 2026-04-28 13:55 | 43.57425 | 44.97853 | 36190 ft | 404 kts | 272° |
| 2026-04-28 13:56 | 43.57993 | 44.90151 | 36191 ft | 403 kts | 272° |
| 2026-04-28 13:56 | 43.58548 | 44.82455 | 36190 ft | 403 kts | 272° |
| 2026-04-28 13:57 | 43.59109 | 44.74753 | 36190 ft | 403 kts | 272° |
| 2026-04-28 13:57 | 43.59674 | 44.67056 | 36192 ft | 403 kts | 272° |
| 2026-04-28 13:58 | 43.60226 | 44.59361 | 36184 ft | 403 kts | 272° |
| 2026-04-28 13:58 | 43.60768 | 44.51661 | 35800 ft | 405 kts | 272° |
| 2026-04-28 13:59 | 43.61039 | 44.47781 | 35139 ft | 405 kts | 272° |
| 2026-04-28 13:59 | 43.61312 | 44.43934 | 34645 ft | 401 kts | 272° |
| 2026-04-28 13:59 | 43.61583 | 44.40121 | 34135 ft | 397 kts | 272° |
| 2026-04-28 13:59 | 43.61846 | 44.36343 | 33593 ft | 393 kts | 271° |
| 2026-04-28 14:00 | 43.62101 | 44.32610 | 32532 ft | 389 kts | 274° |
| 2026-04-28 14:00 | 43.62348 | 44.28953 | 32395 ft | 391 kts | 275° |
| 2026-04-28 14:00 | 43.62601 | 44.25198 | 31982 ft | 393 kts | 275° |
| 2026-04-28 14:00 | 43.62858 | 44.21444 | 31490 ft | 392 kts | 275° |
| 2026-04-28 14:01 | 43.63164 | 44.17707 | 30998 ft | 391 kts | 281° |
| 2026-04-28 14:01 | 43.63926 | 44.14115 | 30463 ft | 391 kts | 293° |
| 2026-04-28 14:01 | 43.65222 | 44.10819 | 29924 ft | 391 kts | 305° |
| 2026-04-28 14:01 | 43.66970 | 44.07941 | 29399 ft | 391 kts | 313° |
| 2026-04-28 14:02 | 43.68819 | 44.05184 | 28869 ft | 391 kts | 312° |
| 2026-04-28 14:02 | 43.70656 | 44.02425 | 28359 ft | 390 kts | 312° |
| 2026-04-28 14:02 | 43.72490 | 43.99655 | 27850 ft | 389 kts | 312° |
| 2026-04-28 14:02 | 43.74311 | 43.96896 | 27356 ft | 388 kts | 312° |
| 2026-04-28 14:03 | 43.76124 | 43.94149 | 26865 ft | 386 kts | 312° |
| 2026-04-28 14:03 | 43.77934 | 43.91407 | 26381 ft | 385 kts | 312° |
| 2026-04-28 14:03 | 43.79125 | 43.89600 | 26052 ft | 383 kts | 312° |
| 2026-04-28 14:03 | 43.81522 | 43.85960 | 25388 ft | 381 kts | 312° |
| 2026-04-28 14:04 | 43.83309 | 43.83259 | 24884 ft | 380 kts | 313° |
| 2026-04-28 14:04 | 43.84587 | 43.81614 | 24548 ft | 379 kts | 321° |
| 2026-04-28 14:04 | 43.86772 | 43.79601 | 24057 ft | 377 kts | 331° |
| 2026-04-28 14:04 | 43.89077 | 43.77879 | 23548 ft | 375 kts | 331° |
| 2026-04-28 14:05 | 43.91369 | 43.76153 | 23037 ft | 374 kts | 331° |
| 2026-04-28 14:05 | 43.93651 | 43.74426 | 22521 ft | 373 kts | 331° |
| 2026-04-28 14:05 | 43.95927 | 43.72705 | 22013 ft | 372 kts | 331° |
| 2026-04-28 14:05 | 43.98197 | 43.70988 | 21510 ft | 371 kts | 331° |
| 2026-04-28 14:06 | 44.00461 | 43.69274 | 21009 ft | 370 kts | 331° |
| 2026-04-28 14:06 | 44.02716 | 43.67562 | 20511 ft | 369 kts | 331° |
| 2026-04-28 14:06 | 44.04959 | 43.65857 | 20014 ft | 367 kts | 331° |
| 2026-04-28 14:06 | 44.07198 | 43.64151 | 19526 ft | 366 kts | 331° |
| 2026-04-28 14:07 | 44.09422 | 43.62456 | 19038 ft | 364 kts | 331° |
| 2026-04-28 14:07 | 44.11638 | 43.60767 | 18547 ft | 363 kts | 331° |
| 2026-04-28 14:07 | 44.13845 | 43.59085 | 18071 ft | 361 kts | 331° |
| 2026-04-28 14:07 | 44.16045 | 43.57411 | 17599 ft | 359 kts | 331° |
| 2026-04-28 14:08 | 44.18233 | 43.55745 | 17125 ft | 358 kts | 331° |
| 2026-04-28 14:08 | 44.20412 | 43.54080 | 16665 ft | 356 kts | 330° |
| 2026-04-28 14:08 | 44.22573 | 43.52423 | 16209 ft | 354 kts | 330° |
| 2026-04-28 14:08 | 44.24727 | 43.50775 | 15760 ft | 352 kts | 330° |
| 2026-04-28 14:09 | 44.26731 | 43.48846 | 15331 ft | 349 kts | 317° |
| 2026-04-28 14:09 | 44.28332 | 43.46328 | 14898 ft | 346 kts | 303° |
| 2026-04-28 14:09 | 44.29632 | 43.43524 | 14472 ft | 343 kts | 302° |
| 2026-04-28 14:09 | 44.30923 | 43.40729 | 14047 ft | 341 kts | 302° |
| 2026-04-28 14:10 | 44.32208 | 43.37960 | 13624 ft | 339 kts | 302° |
| 2026-04-28 14:10 | 44.33483 | 43.35214 | 13201 ft | 336 kts | 302° |
| 2026-04-28 14:10 | 44.34753 | 43.32480 | 12764 ft | 334 kts | 302° |
| 2026-04-28 14:10 | 44.36010 | 43.29773 | 12380 ft | 330 kts | 302° |
| 2026-04-28 14:11 | 44.37232 | 43.27135 | 12254 ft | 318 kts | 302° |
| 2026-04-28 14:11 | 44.38392 | 43.24625 | 11898 ft | 306 kts | 302° |
| 2026-04-28 14:11 | 44.39548 | 43.22115 | 11256 ft | 301 kts | 302° |
| 2026-04-28 14:11 | 44.40655 | 43.19710 | 10721 ft | 295 kts | 302° |
| 2026-04-28 14:12 | 44.41776 | 43.17276 | 10230 ft | 292 kts | 302° |
| 2026-04-28 14:12 | 44.42879 | 43.14885 | 9763 ft | 294 kts | 302° |
| 2026-04-28 14:12 | 44.43975 | 43.12504 | 9344 ft | 293 kts | 302° |
| 2026-04-28 14:12 | 44.45074 | 43.10113 | 8980 ft | 291 kts | 302° |
| 2026-04-28 14:13 | 44.46164 | 43.07736 | 8573 ft | 290 kts | 302° |
| 2026-04-28 14:13 | 44.47248 | 43.05370 | 8173 ft | 288 kts | 302° |
| 2026-04-28 14:13 | 44.48297 | 43.02999 | 7998 ft | 283 kts | 295° |
| 2026-04-28 14:13 | 44.48801 | 43.00421 | 7742 ft | 272 kts | 271° |
| 2026-04-28 14:14 | 44.48559 | 42.97992 | 7380 ft | 269 kts | 250° |
| 2026-04-28 14:14 | 44.47996 | 42.96401 | 7056 ft | 270 kts | 235° |
| 2026-04-28 14:14 | 44.46633 | 42.94597 | 6565 ft | 273 kts | 211° |
| 2026-04-28 14:14 | 44.44972 | 42.93290 | 6060 ft | 275 kts | 208° |
| 2026-04-28 14:15 | 44.43289 | 42.91995 | 5534 ft | 274 kts | 207° |
| 2026-04-28 14:15 | 44.41679 | 42.90757 | 5346 ft | 253 kts | 206° |
| 2026-04-28 14:15 | 44.40202 | 42.89619 | 5224 ft | 231 kts | 206° |
| 2026-04-28 14:15 | 44.38841 | 42.88572 | 5120 ft | 219 kts | 206° |
| 2026-04-28 14:16 | 44.37523 | 42.87565 | 5031 ft | 212 kts | 205° |
| 2026-04-28 14:16 | 44.36250 | 42.86592 | 4930 ft | 205 kts | 205° |
| 2026-04-28 14:16 | 44.35021 | 42.85666 | 4838 ft | 197 kts | 199° |
| 2026-04-28 14:16 | 44.33726 | 42.85430 | 4748 ft | 186 kts | 163° |
| 2026-04-28 14:17 | 44.32648 | 42.86275 | 4678 ft | 178 kts | 130° |
| 2026-04-28 14:17 | 44.31961 | 42.87740 | 4266 ft | 183 kts | 122° |
| 2026-04-28 14:17 | 44.31287 | 42.89219 | 3971 ft | 178 kts | 122° |
| 2026-04-28 14:17 | 44.30630 | 42.90669 | 3715 ft | 175 kts | 122° |
| 2026-04-28 14:18 | 44.29984 | 42.92103 | 3486 ft | 175 kts | 121° |
| 2026-04-28 14:18 | 44.29340 | 42.93535 | 3246 ft | 174 kts | 121° |
| 2026-04-28 14:18 | 44.28712 | 42.94928 | 3006 ft | 163 kts | 121° |
| 2026-04-28 14:18 | 44.28126 | 42.96229 | 2820 ft | 154 kts | 122° |
| 2026-04-28 14:19 | 44.27563 | 42.97480 | 2597 ft | 151 kts | 122° |
| 2026-04-28 14:19 | 44.27009 | 42.98708 | 2393 ft | 147 kts | 122° |
| 2026-04-28 14:19 | 44.26487 | 42.99866 | 2186 ft | 137 kts | 120° |
| 2026-04-28 14:19 | 44.25985 | 43.00969 | 1984 ft | 133 kts | 120° |
| 2026-04-28 14:20 | 44.25505 | 43.02048 | 1804 ft | 132 kts | 120° |
| 2026-04-28 14:20 | 44.25012 | 43.03134 | 1605 ft | 130 kts | 119° |
| 2026-04-28 14:20 | 44.24526 | 43.04208 | 1405 ft | 133 kts | 122° |
| 2026-04-28 14:20 | 44.24047 | 43.05289 | 1234 ft | 130 kts | 122° |
| 2026-04-28 14:21 | 44.23559 | 43.06361 | 1079 ft | 131 kts | 122° |
| 2026-04-28 14:21 | 44.23117 | 43.07338 | 1049 ft | 99 kts | 122° |
| 2026-04-28 14:21 | 44.22837 | 43.07957 | 1049 ft | 52 kts | 122° |
| 2026-04-28 14:21 | 44.22677 | 43.08303 | 1051 ft | 39 kts | 122° |
| 2026-04-28 14:22 | 44.22548 | 43.08591 | 1054 ft | 32 kts | 122° |
| 2026-04-28 14:22 | 44.22405 | 43.08804 | 1053 ft | 30 kts | 145° |
| 2026-04-28 14:22 | 44.22232 | 43.08935 | 1053 ft | 22 kts | 152° |
| 2026-04-28 14:22 | 44.22101 | 43.09033 | 1052 ft | 22 kts | 151° |
| 2026-04-28 14:23 | 44.21979 | 43.09121 | 1051 ft | 15 kts | 160° |
| 2026-04-28 14:23 | 44.21880 | 43.09078 | 1051 ft | 14 kts | 208° |
| 2026-04-28 14:23 | 44.21857 | 43.09064 | 1051 ft | 1 kts | 203° |
| 2026-04-28 14:23 | 44.21833 | 43.09063 | 1051 ft | 6 kts | 166° |
| 2026-04-28 14:24 | 44.21787 | 43.09109 | 1051 ft | 9 kts | 172° |
| 2026-04-28 14:24 | 44.21745 | 43.09082 | 1051 ft | 5 kts | 213° |
| 2026-04-28 14:24 | 44.21729 | 43.09068 | 1051 ft | 0 kts | 212° |
| 2026-04-28 14:24 | 44.21728 | 43.09067 | 1051 ft | 0 kts | 212° |